Time;durP1;ratioP1;P1;durP2;ratioP2;P2;SDS_P1;SDS_P2;PMS_P1;PMS_P2;Temp;Humidity;BMP_temperature;BMP_pressure;BME280_temperature;BME280_humidity;BME280_pressure;Samples;Min_cycle;Max_cycle;Signal;HPM_P1;HPM_P2
2023/10/23 00:02:27;;;;;;;4.53;2.50;;;;;;;13.54;47.06;99486.00;10301946;28;20237;-67
2023/10/23 00:07:29;;;;;;;5.33;2.70;;;;;;;13.22;47.47;99459.78;10304327;28;20270;-67
2023/10/23 00:12:30;;;;;;;5.57;3.10;;;;;;;11.76;49.73;99498.78;10306990;28;20238;-68
2023/10/23 00:17:33;;;;;;;6.07;3.43;;;;;;;10.77;52.38;99442.72;10310616;28;20236;-67
2023/10/23 00:22:35;;;;;;;5.70;3.90;;;;;;;10.87;52.44;99411.91;10310921;28;21044;-67
2023/10/23 00:27:37;;;;;;;8.30;4.33;;;;;;;11.11;52.47;99384.88;10310012;28;20324;-67
2023/10/23 00:32:39;;;;;;;5.13;3.73;;;;;;;10.73;53.30;99387.88;10307920;28;20242;-68
2023/10/23 00:37:42;;;;;;;7.37;4.43;;;;;;;11.88;51.38;99279.22;10308758;28;20229;-68
2023/10/23 00:42:44;;;;;;;5.30;3.67;;;;;;;14.73;45.88;99351.78;10307982;28;20300;-67
2023/10/23 00:47:46;;;;;;;5.33;3.87;;;;;;;15.42;44.55;99371.34;10309145;28;20237;-68
2023/10/23 00:52:48;;;;;;;6.17;4.30;;;;;;;14.33;44.63;99540.53;10309080;28;20772;-68
2023/10/23 00:57:49;;;;;;;3.87;3.10;;;;;;;11.07;52.07;99479.00;10308746;28;20243;-68
2023/10/23 01:02:51;;;;;;;3.83;2.60;;;;;;;12.37;50.01;99354.94;10308594;28;20341;-68
2023/10/23 01:07:55;;;;;;;6.17;3.20;;;;;;;14.92;44.41;99469.31;10307194;28;20270;-68
2023/10/23 01:12:57;;;;;;;5.20;2.93;;;;;;;11.93;49.05;99530.59;10307609;28;20632;-68
2023/10/23 01:18:01;;;;;;;2.90;2.67;;;;;;;14.67;45.01;99401.94;10307080;28;20311;-68
2023/10/23 01:23:03;;;;;;;5.53;3.07;;;;;;;14.30;44.53;99539.09;10310449;28;20728;-68
2023/10/23 01:28:06;;;;;;;5.57;2.90;;;;;;;14.31;44.49;99438.47;10307880;28;20238;-68
2023/10/23 01:33:08;;;;;;;5.30;3.13;;;;;;;14.34;44.56;99507.19;10310414;28;20272;-68
2023/10/23 01:38:12;;;;;;;3.73;2.53;;;;;;;12.89;47.51;99509.00;10307955;28;20234;-68
2023/10/23 01:43:14;;;;;;;6.27;2.90;;;;;;;13.17;46.74;99509.81;10306292;28;20728;-68
2023/10/23 01:48:16;;;;;;;5.27;2.90;;;;;;;12.94;47.38;99489.59;10306591;28;20693;-68
2023/10/23 01:53:18;;;;;;;3.47;3.00;;;;;;;12.64;47.15;99558.97;10307279;28;20238;-67
2023/10/23 01:58:20;;;;;;;3.27;2.37;;;;;;;13.81;45.61;99443.69;10305661;28;20302;-68
2023/10/23 02:03:21;;;;;;;3.63;2.30;;;;;;;14.09;45.16;99394.13;10305452;28;20344;-68
2023/10/23 02:08:23;;;;;;;4.20;2.80;;;;;;;13.92;45.23;99458.31;10305405;28;20230;-68
2023/10/23 02:13:25;;;;;;;3.73;2.53;;;;;;;14.21;45.04;99436.25;10322138;28;20238;-66
2023/10/23 02:18:27;;;;;;;2.90;2.37;;;;;;;14.72;43.97;99461.34;10308450;28;20241;-66
2023/10/23 02:23:31;;;;;;;4.77;2.53;;;;;;;15.07;43.19;99457.38;10306818;28;20245;-65
2023/10/23 02:28:49;;;;;;;2.90;2.20;;;;;;;14.63;42.99;99575.78;10307144;28;20611;-65
2023/10/23 02:33:51;;;;;;;2.60;2.40;;;;;;;14.75;43.11;99514.78;10305258;28;20304;-66
2023/10/23 02:38:53;;;;;;;3.33;2.30;;;;;;;14.70;43.21;99556.91;10308037;28;20308;-65
2023/10/23 02:43:54;;;;;;;4.50;2.60;;;;;;;14.62;43.52;99555.28;10302330;28;20636;-65
2023/10/23 02:48:56;;;;;;;2.40;2.20;;;;;;;14.92;43.01;99536.66;10307469;28;20368;-65
2023/10/23 02:53:58;;;;;;;3.10;2.80;;;;;;;14.38;43.88;99565.75;10304887;28;20588;-65
2023/10/23 02:58:59;;;;;;;4.27;2.43;;;;;;;14.96;42.82;99534.34;10306378;28;20320;-65
2023/10/23 03:04:01;;;;;;;4.13;2.80;;;;;;;15.24;42.74;99477.28;10304981;28;20712;-65
2023/10/23 03:09:04;;;;;;;2.90;2.63;;;;;;;12.49;47.37;99597.53;10306667;28;20720;-65
2023/10/23 03:14:08;;;;;;;2.73;2.30;;;;;;;13.85;44.48;99574.00;10288275;28;20245;-66
2023/10/23 03:19:10;;;;;;;5.07;2.50;;;;;;;13.65;45.65;99393.94;10304901;28;20229;-66
2023/10/23 03:24:11;;;;;;;4.60;2.70;;;;;;;10.14;51.08;99503.00;10305587;28;20232;-66
2023/10/23 03:29:13;;;;;;;9.53;6.70;;;;;;;11.25;49.90;99303.56;10305832;28;20236;-65
2023/10/23 03:34:15;;;;;;;12.93;10.70;;;;;;;10.94;48.77;99424.53;10305874;28;20238;-65
2023/10/23 03:39:18;;;;;;;10.90;9.47;;;;;;;11.01;48.83;99391.41;10302134;28;20271;-66
2023/10/23 03:44:19;;;;;;;5.67;4.53;;;;;;;11.95;48.03;99481.13;10303948;28;20445;-66
2023/10/23 03:55:47;;;;;;;7.10;4.90;;;;;;;13.33;44.91;99504.03;10302694;28;20233;-65
2023/10/23 04:00:53;;;;;;;5.17;3.80;;;;;;;10.43;49.49;99519.97;10306645;28;20230;-67
2023/10/23 04:05:55;;;;;;;11.20;4.53;;;;;;;11.46;48.20;99436.56;10310654;28;20252;-67
2023/10/23 04:10:58;;;;;;;5.20;3.87;;;;;;;11.03;46.97;99565.25;10310195;28;20233;-64
2023/10/23 04:16:02;;;;;;;5.17;3.63;;;;;;;9.61;51.19;99496.16;10304796;28;20328;-66
2023/10/23 04:21:08;;;;;;;5.37;3.90;;;;;;;9.92;50.50;99438.00;10309763;28;20226;-65
2023/10/23 04:26:10;;;;;;;5.87;3.50;;;;;;;8.04;53.60;99484.09;10312050;28;20234;-66
2023/10/23 04:31:11;;;;;;;7.00;4.03;;;;;;;7.78;54.00;99441.78;10310145;28;20462;-66
2023/10/23 04:36:13;;;;;;;5.43;3.83;;;;;;;9.30;51.97;99305.75;10313111;28;20762;-66
2023/10/23 04:41:15;;;;;;;5.23;4.30;;;;;;;8.14;54.02;99437.75;10308487;28;20235;-65
2023/10/23 04:46:17;;;;;;;5.63;3.80;;;;;;;8.04;54.90;99326.88;10311738;28;21028;-66
2023/10/23 04:51:19;;;;;;;4.27;3.83;;;;;;;7.62;55.52;99368.09;10307646;28;20236;-64
2023/10/23 04:56:21;;;;;;;4.37;3.50;;;;;;;6.94;56.53;99394.31;10309899;28;20253;-64
2023/10/23 05:01:24;;;;;;;6.33;4.17;;;;;;;6.88;56.84;99314.38;10309127;28;20323;-66
2023/10/23 05:06:26;;;;;;;6.83;4.00;;;;;;;6.66;57.16;99276.84;10310746;28;20233;-65
2023/10/23 05:11:28;;;;;;;4.27;3.50;;;;;;;6.73;56.90;99269.00;10308850;28;20742;-66
2023/10/23 05:16:29;;;;;;;7.33;3.40;;;;;;;7.23;55.30;99278.47;10308749;28;20544;-65
2023/10/23 05:21:31;;;;;;;4.80;3.93;;;;;;;7.87;54.63;99165.53;10307772;28;20240;-65
2023/10/23 05:26:33;;;;;;;4.80;3.60;;;;;;;6.93;56.18;99229.56;10310168;28;20296;-65
2023/10/23 05:31:34;;;;;;;5.63;4.00;;;;;;;6.34;57.31;99334.38;10307272;28;20656;-65
2023/10/23 05:36:36;;;;;;;4.90;4.00;;;;;;;7.55;55.62;99140.81;10310748;28;20292;-65
2023/10/23 05:41:38;;;;;;;6.20;4.13;;;;;;;8.32;53.59;99177.03;10294927;28;20263;-64
2023/10/23 05:46:40;;;;;;;4.33;3.60;;;;;;;8.74;52.46;99225.34;10270418;28;20316;-65
2023/10/23 05:51:41;;;;;;;8.93;3.73;;;;;;;8.59;52.55;99260.03;10269183;28;20403;-66
2023/10/23 05:56:43;;;;;;;9.47;5.13;;;;;;;8.38;52.65;99322.91;10271665;28;20234;-66
2023/10/23 06:01:45;;;;;;;5.87;4.60;;;;;;;8.05;53.64;99315.22;10267294;28;20253;-66
2023/10/23 06:06:47;;;;;;;5.67;4.87;;;;;;;7.25;55.76;99321.69;10283880;28;20257;-66
2023/10/23 06:11:48;;;;;;;5.67;5.03;;;;;;;6.84;55.76;99432.75;10308816;28;20659;-68
2023/10/23 06:16:50;;;;;;;9.90;5.83;;;;;;;7.10;56.08;99307.47;10311336;28;20236;-65
2023/10/23 06:21:52;;;;;;;6.70;4.33;;;;;;;9.38;52.18;99169.44;10309808;28;20242;-65
2023/10/23 06:26:54;;;;;;;5.70;4.37;;;;;;;7.25;55.16;99427.34;10304826;28;20244;-66
2023/10/23 06:31:56;;;;;;;9.00;4.77;;;;;;;8.31;53.56;99393.97;10307034;28;20288;-66
2023/10/23 06:36:58;;;;;;;5.90;4.60;;;;;;;10.49;51.21;99192.03;10308534;28;20243;-64
2023/10/23 06:42:00;;;;;;;7.20;4.97;;;;;;;8.35;53.44;99435.25;10308001;28;20742;-65
2023/10/23 06:47:03;;;;;;;5.40;4.50;;;;;;;8.82;53.53;99372.81;10306116;28;20236;-64
2023/10/23 06:52:05;;;;;;;6.73;4.20;;;;;;;8.69;53.34;99451.81;10307037;28;20324;-66
2023/10/23 06:57:06;;;;;;;4.77;4.30;;;;;;;8.71;53.59;99407.13;10307618;28;20242;-65
2023/10/23 07:02:09;;;;;;;5.50;4.43;;;;;;;8.55;54.95;99317.44;10307542;28;20299;-66
2023/10/23 07:07:10;;;;;;;5.73;4.13;;;;;;;9.64;53.83;99210.75;10308588;28;20647;-65
2023/10/23 07:12:29;;;;;;;5.80;4.30;;;;;;;8.61;54.60;99383.38;10305933;28;20229;-66
2023/10/23 07:17:31;;;;;;;7.20;5.13;;;;;;;8.79;55.17;99278.97;10306673;28;20230;-65
2023/10/23 07:22:33;;;;;;;7.03;4.13;;;;;;;8.65;53.82;99451.34;10314383;28;20239;-66
2023/10/23 07:27:35;;;;;;;5.53;4.50;;;;;;;9.55;53.47;99286.69;10315066;28;20239;-65
2023/10/23 07:32:36;;;;;;;5.93;5.10;;;;;;;9.36;53.61;99333.53;10315125;28;20736;-66
2023/10/23 07:37:38;;;;;;;7.07;4.97;;;;;;;9.92;51.99;99458.53;10314383;28;20286;-65
2023/10/23 07:42:40;;;;;;;5.67;4.20;;;;;;;10.73;52.12;99257.59;10311429;28;20242;-65
2023/10/23 07:47:42;;;;;;;8.20;4.70;;;;;;;10.02;52.88;99327.25;10314497;28;20240;-65
2023/10/23 07:52:43;;;;;;;7.53;5.10;;;;;;;9.41;53.61;99387.19;10312966;28;20658;-65
2023/10/23 07:57:45;;;;;;;6.23;4.63;;;;;;;10.27;52.34;99349.88;10310804;28;20245;-66
2023/10/23 08:02:47;;;;;;;7.00;4.70;;;;;;;9.36;54.82;99349.53;10314212;28;20250;-65
2023/10/23 08:07:48;;;;;;;9.07;4.93;;;;;;;9.12;54.37;99399.56;10312036;28;20617;-66
2023/10/23 08:12:50;;;;;;;7.13;4.67;;;;;;;9.24;54.43;99399.09;10311973;28;20329;-66
2023/10/23 08:17:52;;;;;;;6.00;4.63;;;;;;;9.60;54.35;99343.03;10314030;28;20245;-65
2023/10/23 08:22:54;;;;;;;5.57;4.63;;;;;;;10.33;52.87;99338.41;10313686;28;20237;-66
2023/10/23 08:27:55;;;;;;;5.17;4.70;;;;;;;9.53;54.53;99406.25;10311668;28;20325;-65
2023/10/23 08:32:57;;;;;;;11.93;5.57;;;;;;;9.72;53.16;99501.00;10312038;28;20237;-65
2023/10/23 08:37:59;;;;;;;5.80;5.10;;;;;;;9.78;53.88;99461.00;10311919;28;20318;-64
2023/10/23 08:43:01;;;;;;;6.93;5.30;;;;;;;9.83;54.12;99444.44;10319444;28;20725;-65
2023/10/23 08:48:03;;;;;;;9.70;5.47;;;;;;;10.14;53.28;99435.31;10310734;28;20230;-66
2023/10/23 08:53:09;;;;;;;11.90;6.37;;;;;;;10.00;53.50;99495.84;10306660;28;20230;-65
2023/10/23 08:58:13;;;;;;;7.73;5.70;;;;;;;10.78;53.04;99380.13;10307362;28;20231;-65
2023/10/23 09:03:16;;;;;;;6.27;5.60;;;;;;;11.14;52.04;99413.94;10307165;28;20438;-64
2023/10/23 09:08:38;;;;;;;8.50;5.77;;;;;;;10.79;53.25;99371.09;10308817;28;20611;-66
2023/10/23 09:13:41;;;;;;;6.53;5.33;;;;;;;11.39;51.34;99498.16;10309497;28;21022;-65
2023/10/23 09:18:49;;;;;;;7.47;4.87;;;;;;;11.51;52.13;99388.56;10310392;28;20477;-65
2023/10/23 09:23:53;;;;;;;7.97;5.13;;;;;;;11.16;52.60;99419.94;10307759;28;20466;-65
2023/10/23 09:28:55;;;;;;;8.33;5.17;;;;;;;12.66;49.61;99436.91;10308942;28;20241;-66
2023/10/23 09:33:57;;;;;;;6.60;5.30;;;;;;;11.44;52.00;99494.91;10308732;28;20245;-65
2023/10/23 09:39:00;;;;;;;7.23;5.17;;;;;;;11.67;51.89;99462.44;10309424;28;20285;-65
2023/10/23 09:44:04;;;;;;;5.83;5.23;;;;;;;12.54;49.86;99466.22;10308550;28;20744;-66
2023/10/23 09:49:06;;;;;;;8.17;5.17;;;;;;;11.05;53.04;99469.47;10310882;28;20562;-66
2023/10/23 09:54:22;;;;;;;7.20;5.50;;;;;;;11.37;51.78;99547.59;10309154;28;20238;-65
2023/10/23 09:59:33;;;;;;;6.63;4.70;;;;;;;12.05;51.03;99445.91;10308632;28;20233;-66
2023/10/23 10:04:50;;;;;;;9.47;4.77;;;;;;;12.54;49.99;99500.31;10308990;28;20290;-65
2023/10/23 10:09:53;;;;;;;8.97;4.90;;;;;;;12.14;51.99;99430.44;10306108;28;20221;-66
2023/10/23 10:14:56;;;;;;;7.13;4.80;;;;;;;12.46;50.73;99482.50;10308210;28;20248;-67
2023/10/23 10:20:01;;;;;;;13.57;4.07;;;;;;;11.54;52.07;99514.13;10307503;28;20253;-67
2023/10/23 10:25:05;;;;;;;6.03;4.47;;;;;;;12.01;50.88;99565.31;10307877;28;20230;-67
2023/10/23 10:30:37;;;;;;;7.67;4.53;;;;;;;13.19;48.99;99561.47;10305162;28;20236;-67
2023/10/23 10:35:38;;;;;;;6.50;3.90;;;;;;;12.50;50.26;99547.34;10308470;28;20234;-67
2023/10/23 10:41:03;;;;;;;6.60;4.33;;;;;;;13.70;48.44;99455.13;10303889;28;20288;-67
2023/10/23 10:46:21;;;;;;;7.40;4.10;;;;;;;14.83;47.07;99364.75;10304642;28;20300;-67
2023/10/23 10:51:25;;;;;;;4.47;3.40;;;;;;;13.15;49.29;99480.47;10306186;28;20307;-67
2023/10/23 10:56:27;;;;;;;4.70;3.67;;;;;;;15.06;47.00;99345.25;10333957;28;20665;-67
2023/10/23 11:06:11;;;;;;;5.97;3.37;;;;;;;9.52;58.33;99338.66;10447668;27;20808;-67
2023/10/23 11:11:13;;;;;;;5.33;3.17;;;;;;;10.81;56.61;99174.47;10405072;28;20233;-67
2023/10/23 11:16:15;;;;;;;4.30;3.90;;;;;;;11.16;55.32;99235.97;10374686;28;20232;-67
2023/10/23 11:21:22;;;;;;;5.10;3.30;;;;;;;10.75;55.84;99348.41;10376597;28;20225;-67
2023/10/23 11:26:25;;;;;;;6.03;3.20;;;;;;;11.24;56.02;99210.88;10379992;28;20299;-67
2023/10/23 11:31:27;;;;;;;5.17;3.73;;;;;;;11.24;54.88;99286.66;10377671;28;20287;-68
2023/10/23 11:36:32;;;;;;;13.60;8.80;;;;;;;10.89;56.09;99243.09;10373352;28;20241;-67
2023/10/23 11:41:35;;;;;;;6.77;3.03;;;;;;;12.07;54.58;99153.38;10375425;28;20935;-67
2023/10/23 11:46:37;;;;;;;5.83;3.33;;;;;;;11.68;54.10;99284.53;10377280;28;20777;-67
2023/10/23 11:51:39;;;;;;;7.03;3.50;;;;;;;12.40;53.33;99265.13;10378814;28;20233;-68
2023/10/23 11:56:44;;;;;;;4.70;3.03;;;;;;;10.41;56.18;99390.97;10374183;28;20264;-67
2023/10/23 12:01:47;;;;;;;7.43;2.87;;;;;;;11.71;54.39;99294.88;10371863;28;20237;-70
2023/10/23 12:06:49;;;;;;;5.73;3.33;;;;;;;12.44;53.26;99317.38;10373008;28;20743;-67
2023/10/23 12:11:51;;;;;;;7.87;3.10;;;;;;;12.27;53.18;99333.88;10373316;28;20858;-67
2023/10/23 12:16:52;;;;;;;9.30;3.23;;;;;;;11.53;55.62;99257.06;10349273;28;20234;-68
2023/10/23 12:21:54;;;;;;;5.13;3.27;;;;;;;12.57;53.48;99227.97;10349112;28;20220;-68
2023/10/23 12:26:56;;;;;;;5.93;3.27;;;;;;;12.29;53.75;99245.97;10346221;28;20233;-67
2023/10/23 12:31:59;;;;;;;6.27;3.57;;;;;;;13.39;51.99;99190.63;10346903;28;20241;-68
2023/10/23 12:37:06;;;;;;;5.47;3.43;;;;;;;13.56;50.73;99271.56;10364415;28;20284;-67
2023/10/23 12:42:08;;;;;;;6.93;3.47;;;;;;;12.07;53.91;99282.91;10386827;28;20220;-68
2023/10/23 12:47:09;;;;;;;4.77;3.10;;;;;;;13.82;51.20;99169.19;10390427;28;20414;-67
2023/10/23 12:52:12;;;;;;;4.30;3.40;;;;;;;13.80;50.35;99254.66;10387483;28;20323;-68
2023/10/23 12:57:14;;;;;;;8.67;3.33;;;;;;;11.81;53.43;99335.50;10385034;28;20237;-67
2023/10/23 13:02:15;;;;;;;6.80;3.37;;;;;;;12.08;54.04;99217.53;10386753;28;20343;-68
2023/10/23 13:07:18;;;;;;;3.97;2.60;;;;;;;11.54;54.69;99259.56;10386728;28;20231;-67
2023/10/23 13:12:20;;;;;;;8.00;3.10;;;;;;;11.90;54.43;99250.31;10386273;28;20232;-67
2023/10/23 13:17:22;;;;;;;5.70;3.13;;;;;;;11.91;54.45;99168.03;10387055;28;20271;-68
2023/10/23 13:22:24;;;;;;;8.23;3.40;;;;;;;11.43;56.77;99108.25;10387088;28;20654;-67
2023/10/23 13:27:26;;;;;;;7.17;3.50;;;;;;;12.32;55.69;98990.69;10380357;28;20601;-67
2023/10/23 13:32:27;;;;;;;4.03;3.00;;;;;;;12.12;55.81;99051.66;10384630;28;20707;-67
2023/10/23 13:37:29;;;;;;;4.40;3.00;;;;;;;12.87;53.69;99127.09;10382266;28;20778;-67
2023/10/23 13:42:31;;;;;;;6.87;3.83;;;;;;;12.32;55.35;99089.94;10386038;28;20240;-67
2023/10/23 13:47:32;;;;;;;3.43;2.83;;;;;;;13.31;53.76;99064.59;10382755;28;20237;-67
2023/10/23 13:52:34;;;;;;;5.57;2.93;;;;;;;12.22;56.04;99111.03;10380046;28;20232;-67
2023/10/23 13:57:36;;;;;;;5.90;3.50;;;;;;;11.37;56.98;99184.09;10377092;28;20287;-68
2023/10/23 14:02:38;;;;;;;5.43;3.33;;;;;;;12.05;56.27;99094.59;10382793;28;20644;-70
2023/10/23 14:07:40;;;;;;;4.20;3.17;;;;;;;12.06;55.07;99138.31;10380189;28;20236;-69
2023/10/23 14:12:41;;;;;;;6.33;3.13;;;;;;;12.19;55.82;99088.13;10378189;28;20217;-70
2023/10/23 14:17:43;;;;;;;4.93;3.03;;;;;;;12.21;55.94;99109.38;10377937;28;20796;-69
2023/10/23 14:22:45;;;;;;;8.13;3.07;;;;;;;13.89;53.33;98990.81;10381436;28;20615;-69
2023/10/23 14:27:47;;;;;;;9.23;3.87;;;;;;;12.46;56.24;99042.41;10380601;28;20232;-70
2023/10/23 14:32:49;;;;;;;5.20;3.20;;;;;;;13.01;54.33;99092.06;10377866;28;20221;-67
2023/10/23 14:37:51;;;;;;;5.77;3.40;;;;;;;12.87;55.57;99030.44;10374943;28;20735;-65
2023/10/23 14:42:54;;;;;;;7.30;3.63;;;;;;;13.18;54.74;99050.22;10388061;28;20757;-68
2023/10/23 14:47:56;;;;;;;8.77;4.00;;;;;;;13.38;53.31;99145.97;10376998;28;20254;-69
2023/10/23 14:52:58;;;;;;;5.07;3.63;;;;;;;12.62;55.87;99048.34;10379515;28;20225;-68
2023/10/23 14:58:00;;;;;;;6.60;3.70;;;;;;;13.82;54.43;98878.78;10385360;28;22307;-68
2023/10/23 15:05:11;;;;;;;4.37;3.53;;;;;;;11.62;58.65;98900.31;10423499;28;21385;-66
2023/10/23 15:10:15;;;;;;;9.80;6.80;;;;;;;11.05;60.54;98846.50;10424988;28;20199;-68
2023/10/23 15:15:21;;;;;;;5.53;3.60;;;;;;;12.27;57.44;98801.94;10427838;28;20232;-68
2023/10/23 15:20:29;;;;;;;12.63;7.37;;;;;;;10.52;61.14;98932.16;10430354;28;20216;-69
2023/10/23 15:25:30;;;;;;;7.47;5.30;;;;;;;10.96;60.01;98928.03;10429163;28;20291;-69
2023/10/23 15:30:32;;;;;;;7.20;5.40;;;;;;;11.52;58.87;98870.41;10426656;28;20224;-67
2023/10/23 15:35:34;;;;;;;5.47;4.30;;;;;;;12.67;56.53;98837.31;10425817;28;20323;-67
2023/10/23 15:40:36;;;;;;;5.33;4.23;;;;;;;11.02;60.58;98848.78;10426136;28;20868;-68
2023/10/23 15:45:38;;;;;;;7.93;4.87;;;;;;;11.85;59.38;98761.44;10425811;28;20249;-68
2023/10/23 15:50:40;;;;;;;11.27;8.57;;;;;;;11.63;59.16;98828.78;10423588;28;20643;-68
2023/10/23 15:55:46;;;;;;;6.63;5.13;;;;;;;11.45;59.78;98818.72;10429028;28;20259;-68
2023/10/23 16:00:49;;;;;;;5.40;3.57;;;;;;;10.80;61.07;98904.38;10424925;28;20232;-68
2023/10/23 16:05:51;;;;;;;6.17;4.10;;;;;;;11.16;61.08;98823.59;10423750;28;20241;-68
2023/10/23 16:10:53;;;;;;;9.27;4.70;;;;;;;11.98;59.20;98801.56;10426139;28;20224;-67
2023/10/23 16:15:54;;;;;;;18.00;14.63;;;;;;;12.20;58.17;98844.91;10401245;28;20284;-67
2023/10/23 16:20:57;;;;;;;11.73;9.30;;;;;;;11.33;60.69;98852.59;10401082;28;20225;-66
2023/10/23 16:25:58;;;;;;;8.00;6.17;;;;;;;11.83;59.06;98874.22;10399286;28;20228;-66
2023/10/23 16:31:00;;;;;;;6.83;3.80;;;;;;;11.45;60.29;98925.88;10394578;28;20719;-69
2023/10/23 16:36:02;;;;;;;7.97;4.20;;;;;;;11.49;59.91;98943.19;10398948;28;20241;-65
2023/10/23 16:41:04;;;;;;;11.53;7.40;;;;;;;11.63;59.74;98933.28;10396605;28;20972;-69
2023/10/23 16:46:06;;;;;;;8.90;5.43;;;;;;;11.08;60.82;98938.94;10392736;28;20799;-66
2023/10/23 16:51:08;;;;;;;5.53;4.20;;;;;;;10.96;60.95;99007.53;10399002;28;20282;-71
2023/10/23 16:56:10;;;;;;;6.87;4.50;;;;;;;10.64;62.32;98962.59;10390960;28;20290;-69
2023/10/23 17:01:11;;;;;;;8.30;6.07;;;;;;;10.43;62.99;99013.63;10395679;28;20262;-71
2023/10/23 17:06:13;;;;;;;9.13;6.37;;;;;;;10.29;63.40;98969.97;10393431;28;20258;-69
2023/10/23 17:11:18;;;;;;;13.13;6.60;;;;;;;10.95;62.29;98944.31;10391868;28;20739;-69
2023/10/23 17:16:20;;;;;;;10.47;7.63;;;;;;;11.12;60.79;99033.91;10389423;28;20229;-70
2023/10/23 17:21:22;;;;;;;12.17;8.20;;;;;;;11.38;60.63;99014.28;10392415;28;20327;-70
2023/10/23 17:26:23;;;;;;;12.07;7.77;;;;;;;11.36;60.56;99002.16;10394666;28;20228;-67
2023/10/23 17:31:26;;;;;;;13.40;7.23;;;;;;;11.72;59.38;99015.06;10390643;28;20894;-67
2023/10/23 17:36:32;;;;;;;11.33;7.40;;;;;;;11.78;59.96;98968.69;10395457;28;20240;-67
2023/10/23 17:41:33;;;;;;;10.67;7.17;;;;;;;10.68;62.19;99057.50;10396230;28;20271;-65
2023/10/23 17:46:36;;;;;;;12.50;8.87;;;;;;;10.75;62.88;99032.63;10391734;28;20674;-68
2023/10/23 17:51:38;;;;;;;10.27;7.07;;;;;;;10.92;62.39;98987.53;10395832;28;20233;-68
2023/10/23 17:56:40;;;;;;;13.10;6.73;;;;;;;9.89;64.51;99079.44;10392847;28;20727;-67
2023/10/23 18:01:44;;;;;;;9.37;6.70;;;;;;;10.89;62.83;98964.72;10394686;28;20518;-70
2023/10/23 18:06:46;;;;;;;11.60;7.67;;;;;;;10.40;63.22;99081.72;10394803;28;20247;-70
2023/10/23 18:11:48;;;;;;;12.43;7.10;;;;;;;10.57;62.96;99049.25;10394005;28;20324;-68
2023/10/23 18:16:50;;;;;;;8.53;6.57;;;;;;;11.50;60.91;99027.88;10391290;28;20240;-68
2023/10/23 18:21:53;;;;;;;11.63;5.83;;;;;;;10.99;62.20;99066.84;10392273;28;20237;-70
2023/10/23 18:26:55;;;;;;;13.33;6.97;;;;;;;10.03;64.58;99128.44;10394003;28;20239;-70
2023/10/23 18:31:57;;;;;;;9.37;7.07;;;;;;;10.78;62.87;99061.66;10393768;28;20228;-71
2023/10/23 18:36:58;;;;;;;21.57;15.50;;;;;;;12.17;59.43;99090.22;10392427;28;20450;-69
2023/10/23 18:42:00;;;;;;;8.37;7.07;;;;;;;12.28;58.84;99055.72;10389578;28;20244;-69
2023/10/23 18:47:04;;;;;;;11.07;7.23;;;;;;;11.09;61.42;99137.91;10388674;28;20249;-70
2023/10/23 18:52:06;;;;;;;10.43;7.00;;;;;;;11.52;60.27;99132.16;10387295;28;20330;-69
2023/10/23 18:57:08;;;;;;;9.87;6.43;;;;;;;12.74;57.79;99125.28;10390267;28;20740;-69
2023/10/23 19:02:10;;;;;;;12.53;7.87;;;;;;;13.99;53.80;99225.13;10393291;28;20302;-69
2023/10/23 19:07:12;;;;;;;11.53;7.87;;;;;;;13.33;56.71;99137.75;10393798;28;20243;-69
2023/10/23 19:12:15;;;;;;;11.40;6.50;;;;;;;13.17;56.99;99104.97;10393518;28;20248;-70
2023/10/23 19:17:17;;;;;;;16.53;9.67;;;;;;;12.85;57.78;99101.47;10388311;28;20274;-69
2023/10/23 19:22:39;;;;;;;20.67;11.00;;;;;;;12.67;57.86;99056.56;10392788;28;20231;-69
2023/10/23 19:27:41;;;;;;;8.33;6.47;;;;;;;12.84;57.57;99064.91;10384678;28;20239;-69
2023/10/23 19:32:44;;;;;;;11.80;7.87;;;;;;;13.41;56.42;99056.84;10391920;28;20305;-69
2023/10/23 19:37:46;;;;;;;20.00;11.73;;;;;;;13.01;57.49;99100.13;10389354;28;20236;-70
2023/10/23 19:42:51;;;;;;;8.50;6.73;;;;;;;13.93;54.63;99099.56;10386492;28;20281;-69
2023/10/23 19:47:52;;;;;;;12.40;6.97;;;;;;;14.99;52.03;99164.00;10387698;28;20229;-68
2023/10/23 19:52:56;;;;;;;8.33;6.87;;;;;;;15.33;51.66;99127.41;10399287;28;20233;-68
2023/10/23 19:57:58;;;;;;;15.70;8.43;;;;;;;12.46;57.66;99168.53;10389780;28;20327;-69
2023/10/23 20:03:00;;;;;;;11.77;7.17;;;;;;;13.58;55.26;99141.28;10390144;28;20336;-69
2023/10/23 20:08:01;;;;;;;9.63;6.73;;;;;;;14.91;53.11;99050.13;10395126;28;20298;-68
2023/10/23 20:13:04;;;;;;;10.90;7.27;;;;;;;13.90;54.24;99164.56;10394638;28;20775;-68
2023/10/23 20:18:08;;;;;;;7.67;6.77;;;;;;;12.40;57.50;99177.44;10397306;28;20237;-66
2023/10/23 20:23:12;;;;;;;11.93;9.10;;;;;;;12.70;57.50;99097.25;10398604;28;20232;-65
2023/10/23 20:28:13;;;;;;;14.17;8.10;;;;;;;15.58;50.87;99083.28;10392119;28;21536;-67
2023/10/23 20:33:15;;;;;;;11.80;7.63;;;;;;;13.39;54.89;99158.38;10396692;28;20318;-67
2023/10/23 20:38:17;;;;;;;9.93;7.83;;;;;;;14.58;53.05;99096.34;10394553;28;20239;-67
2023/10/23 20:43:18;;;;;;;10.23;7.23;;;;;;;14.09;53.05;99224.63;10388066;28;20576;-66
2023/10/23 20:48:20;;;;;;;15.40;9.60;;;;;;;15.34;51.30;99104.78;10396999;28;20623;-65
2023/10/23 20:53:22;;;;;;;12.60;9.23;;;;;;;15.44;50.40;99153.56;10396695;28;20232;-67
2023/10/23 20:58:24;;;;;;;19.30;13.60;;;;;;;14.00;52.78;99230.28;10392887;28;20475;-66
2023/10/23 21:03:25;;;;;;;18.30;13.33;;;;;;;14.77;52.10;99137.53;10395555;28;20292;-65
2023/10/23 21:08:27;;;;;;;11.63;7.40;;;;;;;15.33;51.20;99060.84;10395787;28;20362;-66
2023/10/23 21:13:29;;;;;;;11.13;7.23;;;;;;;14.28;52.86;99085.56;10392295;28;20237;-66
2023/10/23 21:18:30;;;;;;;12.67;8.10;;;;;;;13.79;54.27;99048.63;10395101;28;20279;-67
2023/10/23 21:23:32;;;;;;;11.30;7.80;;;;;;;14.42;52.54;99060.09;10389571;28;20304;-66
2023/10/23 21:28:34;;;;;;;9.70;8.17;;;;;;;14.72;52.80;99002.75;10390858;28;20673;-66
2023/10/23 21:33:36;;;;;;;11.37;7.90;;;;;;;12.85;55.50;99121.09;10391778;28;20335;-66
2023/10/23 21:38:38;;;;;;;8.93;7.20;;;;;;;13.26;55.47;99001.59;10391590;28;20669;-66
2023/10/23 21:43:39;;;;;;;10.17;7.50;;;;;;;12.49;57.35;99023.22;10393563;28;20666;-67
2023/10/23 21:48:42;;;;;;;8.87;6.93;;;;;;;13.98;54.79;98923.03;10393888;28;20232;-65
2023/10/23 21:53:44;;;;;;;7.43;6.50;;;;;;;14.13;53.02;99007.91;10392218;28;20235;-66
2023/10/23 21:58:47;;;;;;;8.77;6.20;;;;;;;13.09;55.92;98938.72;10389973;28;20264;-65
2023/10/23 22:04:09;;;;;;;8.57;6.77;;;;;;;13.39;54.78;99005.22;10392753;28;20657;-66
2023/10/23 22:09:13;;;;;;;8.77;7.07;;;;;;;13.70;55.10;98912.03;10391946;28;20241;-66
2023/10/23 22:14:15;;;;;;;8.27;6.67;;;;;;;12.96;55.83;99024.75;10392338;28;20604;-67
2023/10/23 22:19:16;;;;;;;9.70;7.43;;;;;;;11.97;58.29;99014.38;10397192;28;20236;-66
2023/10/23 22:24:19;;;;;;;9.27;7.60;;;;;;;13.35;56.43;98856.25;10391397;28;20229;-66
2023/10/23 22:29:21;;;;;;;8.87;7.50;;;;;;;11.39;58.97;99056.13;10390932;28;20224;-65
2023/10/23 22:34:23;;;;;;;9.30;7.97;;;;;;;11.56;60.10;98925.22;10393352;28;20672;-66
2023/10/23 22:39:25;;;;;;;13.23;8.67;;;;;;;12.54;57.80;98899.97;10393723;28;20232;-66
2023/10/23 22:44:26;;;;;;;9.93;8.50;;;;;;;13.20;55.08;99005.16;10395466;28;20287;-68
2023/10/23 22:49:28;;;;;;;11.53;8.77;;;;;;;12.04;58.54;98980.31;10395131;28;20260;-67
2023/10/23 22:54:31;;;;;;;11.53;9.73;;;;;;;12.40;57.20;99055.84;10394330;28;20260;-65
2023/10/23 22:59:33;;;;;;;12.80;9.70;;;;;;;13.22;56.81;98878.66;10395640;28;20228;-66
2023/10/23 23:04:35;;;;;;;15.63;9.60;;;;;;;13.09;56.70;98927.97;10392584;28;20275;-65
2023/10/23 23:09:39;;;;;;;11.97;9.87;;;;;;;13.15;56.46;98929.78;10393260;28;20331;-66
2023/10/23 23:14:41;;;;;;;10.20;9.03;;;;;;;13.71;55.00;98902.94;10394184;28;20718;-66
2023/10/23 23:19:46;;;;;;;10.83;9.33;;;;;;;12.86;56.49;99018.03;10394168;28;20319;-66
2023/10/23 23:24:47;;;;;;;11.33;8.73;;;;;;;13.31;56.63;98895.34;10392993;28;20286;-66
2023/10/23 23:29:50;;;;;;;9.20;7.97;;;;;;;13.50;56.11;98861.19;10405036;28;21042;-64
2023/10/23 23:34:52;;;;;;;11.90;9.33;;;;;;;13.09;56.67;98954.81;10402115;28;20275;-66
2023/10/23 23:39:53;;;;;;;10.37;8.10;;;;;;;12.48;58.02;98973.28;10403166;28;20239;-66